createdAt,value
2023-01-30T00:00:08.484Z,.11
2023-01-30T00:00:34.745Z,.11
2023-01-30T00:00:55.778Z,.11
2023-01-30T00:01:27.432Z,.11
2023-01-30T00:01:59.529Z,.11
2023-01-30T00:02:31.415Z,.11
2023-01-30T00:03:03.386Z,.11
2023-01-30T00:03:35.915Z,.11
2023-01-30T00:04:07.441Z,.11
2023-01-30T00:04:34.693Z,.11
2023-01-30T00:04:55.444Z,.11
2023-01-30T00:05:28.659Z,.11
2023-01-30T00:05:59.578Z,.11
2023-01-30T00:06:31.377Z,.11
2023-01-30T00:07:03.385Z,.11
2023-01-30T00:07:35.897Z,.11
2023-01-30T00:08:07.382Z,.11
2023-01-30T00:08:55.415Z,.11
2023-01-30T00:09:27.416Z,.11
2023-01-30T00:09:59.552Z,.22
2023-01-30T00:10:31.725Z,.11
2023-01-30T00:11:03.433Z,.11
2023-01-30T00:11:35.863Z,.11
2023-01-30T00:12:07.413Z,.11
2023-01-30T00:12:34.714Z,.11
2023-01-30T00:12:55.370Z,.22
2023-01-30T00:13:27.391Z,.22
2023-01-30T00:13:59.444Z,.22
2023-01-30T00:14:31.435Z,.22
2023-01-30T00:15:05.047Z,.22
2023-01-30T00:15:36.083Z,.22
2023-01-30T00:16:07.540Z,.22
2023-01-30T00:16:34.810Z,.22
2023-01-30T00:16:55.489Z,.22
2023-01-30T00:17:27.438Z,.22
2023-01-30T00:17:59.452Z,.22
2023-01-30T00:18:31.429Z,.22
2023-01-30T00:19:03.464Z,.22
2023-01-30T00:19:35.910Z,.22
2023-01-30T00:20:08.005Z,.22
2023-01-30T00:20:34.689Z,.22
2023-01-30T00:20:55.663Z,.22
2023-01-30T00:21:28.393Z,.22
2023-01-30T00:21:59.504Z,.22
2023-01-30T00:22:31.391Z,.22
2023-01-30T00:23:03.408Z,.22
2023-01-30T00:23:36.312Z,.22
2023-01-30T00:24:07.418Z,.22
2023-01-30T00:24:36.287Z,.22
2023-01-30T00:24:55.631Z,.22
2023-01-30T00:25:27.867Z,.22
2023-01-30T00:25:59.496Z,.22
2023-01-30T00:26:31.449Z,.11
2023-01-30T00:27:03.433Z,.11
2023-01-30T00:27:35.921Z,.11
2023-01-30T00:28:07.415Z,.11
2023-01-30T00:28:34.727Z,.11
2023-01-30T00:28:55.381Z,.11
2023-01-30T00:29:27.407Z,.11
2023-01-30T00:30:03.365Z,.11
2023-01-30T00:30:32.328Z,.11
2023-01-30T00:31:04.441Z,.11
2023-01-30T00:31:36.345Z,.11
2023-01-30T00:32:07.404Z,.11
2023-01-30T00:32:34.815Z,.11
2023-01-30T00:32:55.402Z,.11
2023-01-30T00:33:27.416Z,.11
2023-01-30T00:33:59.492Z,.11
2023-01-30T00:34:31.461Z,.11
2023-01-30T00:35:03.671Z,.11
2023-01-30T00:35:36.419Z,.11
2023-01-30T00:36:07.529Z,.11
2023-01-30T00:36:34.687Z,.11
2023-01-30T00:37:07.494Z,.11
2023-01-30T00:37:28.643Z,.11
2023-01-30T00:37:59.504Z,.11
2023-01-30T00:38:31.438Z,.11
2023-01-30T00:39:03.429Z,.11
2023-01-30T00:39:35.881Z,.11
2023-01-30T00:40:07.853Z,.11
2023-01-30T00:40:36.690Z,.11
2023-01-30T00:40:55.652Z,.22
2023-01-30T00:41:27.425Z,.22
2023-01-30T00:41:59.826Z,.22
2023-01-30T00:42:31.416Z,.22
2023-01-30T00:43:03.436Z,.22
2023-01-30T00:43:35.897Z,.22
2023-01-30T00:44:07.446Z,.22
2023-01-30T00:44:34.702Z,.22
2023-01-30T00:44:55.419Z,.22
2023-01-30T00:45:28.121Z,.22
2023-01-30T00:45:59.611Z,.22
2023-01-30T00:46:31.608Z,.22
2023-01-30T00:47:04.468Z,.22
2023-01-30T00:47:35.880Z,.11
2023-01-30T00:48:07.447Z,.11
2023-01-30T00:48:34.684Z,.22
2023-01-30T00:48:55.741Z,.22
2023-01-30T00:49:27.437Z,.22
2023-01-30T00:49:59.466Z,.22
2023-01-30T00:50:31.758Z,.22
2023-01-30T00:51:03.484Z,.22
2023-01-30T00:51:35.872Z,.11
2023-01-30T00:52:07.407Z,.11
2023-01-30T00:52:34.690Z,.11
2023-01-30T00:52:55.410Z,.11
2023-01-30T00:53:28.433Z,.11
2023-01-30T00:53:59.482Z,.11
2023-01-30T00:54:31.395Z,.11
2023-01-30T00:55:03.752Z,.11
2023-01-30T00:55:35.961Z,.11
2023-01-30T00:56:07.390Z,.11
2023-01-30T00:56:36.123Z,.11
2023-01-30T00:56:55.464Z,.11
2023-01-30T00:57:27.444Z,.22
2023-01-30T00:57:59.505Z,.22
2023-01-30T00:58:31.417Z,.22
2023-01-30T00:59:03.458Z,.22
2023-01-30T00:59:36.331Z,.22
2023-01-30T01:00:08.449Z,.11
2023-01-30T01:00:34.718Z,.11
2023-01-30T01:00:55.658Z,.22
2023-01-30T01:01:27.479Z,.22
2023-01-30T01:01:59.535Z,.11
2023-01-30T01:02:31.417Z,.11
2023-01-30T01:03:20.137Z,.11
2023-01-30T01:03:41.218Z,.11
2023-01-30T01:04:07.388Z,.11
2023-01-30T01:04:34.690Z,.11
2023-01-30T01:04:55.437Z,.11
2023-01-30T01:05:27.762Z,.11
2023-01-30T01:05:59.532Z,.11
2023-01-30T01:06:31.436Z,.11
2023-01-30T01:07:03.451Z,.11
2023-01-30T01:07:35.682Z,.11
2023-01-30T01:08:07.459Z,.11
2023-01-30T01:08:35.175Z,.11
2023-01-30T01:08:55.419Z,.11
2023-01-30T01:09:27.429Z,.11
2023-01-30T01:10:00.744Z,.11
2023-01-30T01:10:31.429Z,.11
2023-01-30T01:11:03.440Z,.11
2023-01-30T01:11:36.238Z,.11
2023-01-30T01:12:07.419Z,.11
2023-01-30T01:12:34.683Z,.11
2023-01-30T01:12:55.456Z,.11
2023-01-30T01:13:27.445Z,.11
2023-01-30T01:13:59.519Z,.11
2023-01-30T01:14:31.457Z,.11
2023-01-30T01:15:04.064Z,.11
2023-01-30T01:15:35.882Z,.11
2023-01-30T01:16:07.646Z,.11
2023-01-30T01:16:34.876Z,.11
2023-01-30T01:16:55.420Z,0
2023-01-30T01:17:27.458Z,0
2023-01-30T01:17:59.539Z,0
2023-01-30T01:18:31.540Z,0
2023-01-30T01:19:03.440Z,0
2023-01-30T01:19:36.585Z,0
2023-01-30T01:20:07.892Z,0
2023-01-30T01:20:34.742Z,0
2023-01-30T01:20:55.723Z,0
2023-01-30T01:21:27.492Z,0
2023-01-30T01:21:59.572Z,0
2023-01-30T01:22:31.503Z,0
2023-01-30T01:23:03.519Z,0
2023-01-30T01:23:36.234Z,0
2023-01-30T01:24:07.412Z,0
2023-01-30T01:24:34.771Z,0
2023-01-30T01:24:55.435Z,0
2023-01-30T01:25:27.705Z,0
2023-01-30T01:26:01.260Z,0
2023-01-30T01:26:31.531Z,0
2023-01-30T01:27:03.448Z,0
2023-01-30T01:27:35.495Z,0
2023-01-30T01:28:07.433Z,0
2023-01-30T01:28:35.173Z,0
2023-01-30T01:28:55.452Z,0
2023-01-30T01:29:27.463Z,0
2023-01-30T01:30:01.222Z,0
2023-01-30T01:30:31.993Z,0
2023-01-30T01:31:03.556Z,0
2023-01-30T01:31:35.608Z,0
2023-01-30T01:32:07.488Z,0
2023-01-30T01:32:40.548Z,0
2023-01-30T01:33:11.466Z,0
2023-01-30T01:33:35.197Z,0
2023-01-30T01:33:59.805Z,0
2023-01-30T01:34:31.442Z,0
2023-01-30T01:35:03.772Z,0
2023-01-30T01:35:35.498Z,0
2023-01-30T01:36:08.181Z,0
2023-01-30T01:36:52.671Z,0
2023-01-30T01:36:55.466Z,0
2023-01-30T01:37:27.456Z,0
2023-01-30T01:37:59.554Z,0
2023-01-30T01:38:31.484Z,0
2023-01-30T01:39:03.481Z,.11
2023-01-30T01:39:35.499Z,.11
2023-01-30T01:40:08.246Z,.11
2023-01-30T01:40:35.600Z,.11
2023-01-30T01:41:11.947Z,.11
2023-01-30T01:41:34.873Z,.11
2023-01-30T01:41:59.609Z,.11
2023-01-30T01:42:32.318Z,.11
2023-01-30T01:43:03.465Z,.11
2023-01-30T01:43:37.302Z,.11
2023-01-30T01:44:07.632Z,.11
2023-01-30T01:44:37.095Z,.11
2023-01-30T01:44:55.700Z,.11
2023-01-30T01:45:29.794Z,.11
2023-01-30T01:46:00.565Z,.11
2023-01-30T01:46:31.655Z,.11
2023-01-30T01:47:03.669Z,.11
2023-01-30T01:47:35.714Z,.11
2023-01-30T01:48:07.604Z,.11
2023-01-30T01:48:34.836Z,.11
2023-01-30T01:48:56.688Z,.11
2023-01-30T01:49:27.607Z,.11
2023-01-30T01:49:59.644Z,.11
2023-01-30T01:50:32.048Z,.11
2023-01-30T01:51:03.447Z,.11
2023-01-30T01:51:35.652Z,.11
2023-01-30T01:52:08.827Z,.11
2023-01-30T01:52:35.018Z,0
2023-01-30T01:52:55.653Z,0
2023-01-30T01:53:27.564Z,0
2023-01-30T01:53:59.511Z,0
2023-01-30T01:54:31.530Z,0
2023-01-30T01:55:03.820Z,0
2023-01-30T01:55:35.585Z,0
2023-01-30T01:56:07.493Z,0
2023-01-30T01:56:34.704Z,0
2023-01-30T01:56:55.619Z,0
2023-01-30T01:57:27.517Z,0
2023-01-30T01:57:59.558Z,0
2023-01-30T01:58:32.491Z,0
2023-01-30T01:59:03.499Z,-.11
2023-01-30T01:59:35.565Z,-.11
2023-01-30T02:00:08.592Z,-.11
2023-01-30T02:00:34.773Z,-.11
2023-01-30T02:00:55.969Z,-.11
2023-01-30T02:01:27.676Z,-.11
2023-01-30T02:01:59.654Z,-.11
2023-01-30T02:02:31.545Z,-.11
2023-01-30T02:03:03.548Z,-.11
2023-01-30T02:03:35.615Z,-.11
2023-01-30T02:04:07.521Z,-.11
2023-01-30T02:04:34.702Z,-.11
2023-01-30T02:04:56.332Z,-.11
2023-01-30T02:05:27.792Z,-.11
2023-01-30T02:05:59.571Z,-.11
2023-01-30T02:06:31.524Z,-.11
2023-01-30T02:07:03.502Z,-.11
2023-01-30T02:07:36.241Z,-.11
2023-01-30T02:08:08.430Z,-.11
2023-01-30T02:08:34.718Z,-.11
2023-01-30T02:08:55.520Z,-.11
2023-01-30T02:09:27.525Z,-.11
2023-01-30T02:09:59.551Z,-.11
2023-01-30T02:10:31.871Z,-.11
2023-01-30T02:11:03.563Z,-.11
2023-01-30T02:11:35.534Z,-.11
2023-01-30T02:12:07.518Z,-.11
2023-01-30T02:12:34.718Z,-.11
2023-01-30T02:12:55.571Z,-.11
2023-01-30T02:13:27.492Z,-.11
2023-01-30T02:13:59.529Z,0
2023-01-30T02:14:32.299Z,0
2023-01-30T02:15:04.250Z,0
2023-01-30T02:15:36.360Z,0
2023-01-30T02:16:07.715Z,.11
2023-01-30T02:16:34.725Z,.11
2023-01-30T02:16:55.589Z,.11
2023-01-30T02:17:27.565Z,.11
2023-01-30T02:17:59.605Z,.11
2023-01-30T02:18:31.538Z,.11
2023-01-30T02:19:03.515Z,.11
2023-01-30T02:19:35.502Z,.22
2023-01-30T02:20:08.049Z,.22
2023-01-30T02:20:34.920Z,.22
2023-01-30T02:20:59.985Z,.22
2023-01-30T02:21:27.510Z,.22
2023-01-30T02:21:59.543Z,.22
2023-01-30T02:22:31.490Z,.22
2023-01-30T02:23:03.535Z,.27
2023-01-30T02:23:35.528Z,.27
2023-01-30T02:24:09.391Z,.27
2023-01-30T02:24:35.414Z,.27
2023-01-30T02:24:55.570Z,.27
2023-01-30T02:25:27.844Z,.27
2023-01-30T02:25:59.868Z,.27
2023-01-30T02:26:31.573Z,.27
2023-01-30T02:27:03.559Z,.27
2023-01-30T02:27:36.280Z,.27
2023-01-30T02:28:07.530Z,.27
2023-01-30T02:28:34.730Z,.22
2023-01-30T02:28:55.555Z,.22
2023-01-30T02:29:27.527Z,.22
2023-01-30T02:29:59.557Z,.22
2023-01-30T02:30:33.074Z,.22
2023-01-30T02:31:03.647Z,.22
2023-01-30T02:31:35.731Z,.22
2023-01-30T02:32:07.480Z,.22
2023-01-30T02:32:34.734Z,.22
2023-01-30T02:32:55.563Z,.22
2023-01-30T02:33:27.650Z,.22
2023-01-30T02:33:59.569Z,.22
2023-01-30T02:34:31.514Z,.22
2023-01-30T02:35:03.818Z,.22
2023-01-30T02:35:35.662Z,.22
2023-01-30T02:36:07.521Z,.22
2023-01-30T02:36:34.712Z,.22
2023-01-30T02:36:56.515Z,.22
2023-01-30T02:37:27.475Z,.22
2023-01-30T02:37:59.493Z,.22
2023-01-30T02:38:31.502Z,.22
2023-01-30T02:39:03.482Z,.22
2023-01-30T02:39:35.588Z,.22
2023-01-30T02:40:08.767Z,.22
2023-01-30T02:40:35.269Z,.22
2023-01-30T02:40:55.799Z,.22
2023-01-30T02:41:27.500Z,.22
2023-01-30T02:41:59.667Z,.22
2023-01-30T02:42:31.510Z,.22
2023-01-30T02:43:03.456Z,.22
2023-01-30T02:43:35.588Z,.22
2023-01-30T02:44:07.592Z,.22
2023-01-30T02:44:34.706Z,.22
2023-01-30T02:44:55.574Z,.22
2023-01-30T02:45:28.072Z,.22
2023-01-30T02:45:59.564Z,.22
2023-01-30T02:46:33.991Z,.22
2023-01-30T02:47:03.472Z,.22
2023-01-30T02:47:42.107Z,.22
2023-01-30T02:48:07.483Z,.27
2023-01-30T02:48:34.698Z,.27
2023-01-30T02:48:55.562Z,.27
2023-01-30T02:49:27.507Z,.27
2023-01-30T02:49:59.546Z,.27
2023-01-30T02:50:31.789Z,.27
2023-01-30T02:51:03.553Z,.38
2023-01-30T02:51:35.474Z,.38
2023-01-30T02:52:07.476Z,.38
2023-01-30T02:52:34.681Z,.38
2023-01-30T02:52:56.314Z,.38
2023-01-30T02:53:27.485Z,.38
2023-01-30T02:53:59.556Z,.38
2023-01-30T02:54:31.495Z,.38
2023-01-30T02:55:03.778Z,.38
2023-01-30T02:55:35.466Z,.38
2023-01-30T02:56:08.381Z,.38
2023-01-30T02:56:34.690Z,.38
2023-01-30T02:56:55.544Z,.38
2023-01-30T02:57:27.532Z,.38
2023-01-30T02:57:59.553Z,.38
2023-01-30T02:58:31.584Z,.38
2023-01-30T02:59:03.549Z,.38
2023-01-30T02:59:35.488Z,.38
2023-01-30T03:00:08.213Z,.38
2023-01-30T03:00:35.491Z,.38
2023-01-30T03:00:56.014Z,.38
2023-01-30T03:01:27.615Z,.38
2023-01-30T03:01:59.553Z,.38
2023-01-30T03:02:32.348Z,.38
2023-01-30T03:03:03.513Z,.38
2023-01-30T03:03:35.469Z,.38
2023-01-30T03:04:07.468Z,.38
2023-01-30T03:04:34.752Z,.38
2023-01-30T03:04:55.534Z,.38
2023-01-30T03:05:27.933Z,.38
2023-01-30T03:05:59.536Z,.38
2023-01-30T03:06:31.505Z,.38
2023-01-30T03:07:03.541Z,.38
2023-01-30T03:07:36.343Z,.38
2023-01-30T03:08:07.490Z,.38
2023-01-30T03:08:34.674Z,.38
2023-01-30T03:08:56.192Z,.38
2023-01-30T03:09:27.521Z,.27
2023-01-30T03:09:59.512Z,.27
2023-01-30T03:10:31.797Z,.27
2023-01-30T03:11:03.524Z,.27
2023-01-30T03:11:35.491Z,.27
2023-01-30T03:12:08.506Z,.27
2023-01-30T03:12:34.663Z,.27
2023-01-30T03:12:55.490Z,.27
2023-01-30T03:13:27.513Z,.27
2023-01-30T03:13:59.539Z,.27
2023-01-30T03:14:31.677Z,.27
2023-01-30T03:15:04.062Z,.27
2023-01-30T03:15:36.131Z,.27
2023-01-30T03:16:07.733Z,.27
2023-01-30T03:16:35.258Z,.27
2023-01-30T03:16:55.490Z,.27
2023-01-30T03:17:27.518Z,.27
2023-01-30T03:17:59.879Z,.27
2023-01-30T03:18:32.483Z,.27
2023-01-30T03:19:03.505Z,.27
2023-01-30T03:19:35.479Z,.27
2023-01-30T03:20:07.944Z,.27
2023-01-30T03:20:34.703Z,.27
2023-01-30T03:20:55.751Z,.27
2023-01-30T03:21:27.526Z,.27
2023-01-30T03:21:59.562Z,.27
2023-01-30T03:22:31.530Z,.27
2023-01-30T03:23:03.589Z,.27
2023-01-30T03:23:35.472Z,.27
2023-01-30T03:24:07.509Z,.27
2023-01-30T03:24:34.715Z,.27
2023-01-30T03:24:56.207Z,.27
2023-01-30T03:25:27.817Z,.27
2023-01-30T03:25:59.536Z,.27
2023-01-30T03:26:31.483Z,.27
2023-01-30T03:27:03.479Z,.27
2023-01-30T03:27:35.478Z,.27
2023-01-30T03:28:08.294Z,.27
2023-01-30T03:28:34.674Z,.27
2023-01-30T03:28:55.537Z,.27
2023-01-30T03:29:27.540Z,.27
2023-01-30T03:29:59.588Z,.27
2023-01-30T03:30:32.073Z,.27
2023-01-30T03:31:03.633Z,.27
2023-01-30T03:31:35.697Z,.27
2023-01-30T03:32:07.460Z,.27
2023-01-30T03:32:34.690Z,.38
2023-01-30T03:32:55.521Z,.38
2023-01-30T03:33:27.521Z,.38
2023-01-30T03:33:59.531Z,.38
2023-01-30T03:34:32.379Z,.38
2023-01-30T03:35:03.858Z,.38
2023-01-30T03:35:35.499Z,.38
2023-01-30T03:36:07.477Z,.50
2023-01-30T03:36:34.679Z,.50
2023-01-30T03:36:55.546Z,.50
2023-01-30T03:37:27.571Z,.50
2023-01-30T03:37:59.594Z,.50
2023-01-30T03:38:31.512Z,.50
2023-01-30T03:39:03.572Z,.50
2023-01-30T03:39:35.513Z,.50
2023-01-30T03:40:07.972Z,.50
2023-01-30T03:40:34.691Z,.50
2023-01-30T03:40:56.671Z,.50
2023-01-30T03:41:27.511Z,.50
2023-01-30T03:41:59.595Z,.50
2023-01-30T03:42:31.521Z,.50
2023-01-30T03:43:03.508Z,.50
2023-01-30T03:43:35.488Z,.50
2023-01-30T03:44:08.693Z,.50
2023-01-30T03:44:34.695Z,.50
2023-01-30T03:44:55.507Z,.50
2023-01-30T03:45:28.180Z,.50
2023-01-30T03:45:59.770Z,.50
2023-01-30T03:46:31.558Z,.50
2023-01-30T03:47:03.493Z,.50
2023-01-30T03:47:35.523Z,.50
2023-01-30T03:48:07.509Z,.50
2023-01-30T03:48:34.674Z,.50
2023-01-30T03:48:55.539Z,.38
2023-01-30T03:49:27.551Z,.38
2023-01-30T03:49:59.550Z,.38
2023-01-30T03:50:32.630Z,.38
2023-01-30T03:51:03.573Z,.38
2023-01-30T03:51:35.503Z,.38
2023-01-30T03:52:07.492Z,.38
2023-01-30T03:52:34.687Z,.38
2023-01-30T03:52:55.532Z,.38
2023-01-30T03:53:27.563Z,.27
2023-01-30T03:53:59.598Z,.27
2023-01-30T03:54:31.544Z,.27
2023-01-30T03:55:03.794Z,.27
2023-01-30T03:55:35.529Z,.27
2023-01-30T03:56:07.554Z,.27
2023-01-30T03:56:35.063Z,.27
2023-01-30T03:56:56.493Z,.27
2023-01-30T03:57:27.557Z,.27
2023-01-30T03:57:59.539Z,.27
2023-01-30T03:58:31.538Z,.27
2023-01-30T03:59:03.521Z,.27
2023-01-30T03:59:35.897Z,.27
2023-01-30T04:00:12.188Z,.27
2023-01-30T04:00:34.704Z,.27
2023-01-30T04:00:56.878Z,.27
2023-01-30T04:01:27.648Z,.27
2023-01-30T04:01:59.556Z,.27
2023-01-30T04:02:31.600Z,.27
2023-01-30T04:03:03.531Z,.27
2023-01-30T04:03:35.522Z,.27
2023-01-30T04:04:07.963Z,.27
2023-01-30T04:04:34.682Z,.27
2023-01-30T04:04:55.521Z,.27
2023-01-30T04:05:27.826Z,.27
2023-01-30T04:05:59.577Z,.27
2023-01-30T04:06:36.764Z,.27
2023-01-30T04:07:03.557Z,.27
2023-01-30T04:07:35.509Z,.27
2023-01-30T04:08:07.509Z,.27
2023-01-30T04:08:34.661Z,.27
2023-01-30T04:08:55.566Z,.27
2023-01-30T04:09:27.599Z,.27
2023-01-30T04:09:59.895Z,.27
2023-01-30T04:10:31.825Z,.27
2023-01-30T04:11:03.625Z,.27
2023-01-30T04:11:35.787Z,.27
2023-01-30T04:12:07.542Z,.27
2023-01-30T04:12:34.665Z,.27
2023-01-30T04:12:56.222Z,.27
2023-01-30T04:13:27.534Z,.27
2023-01-30T04:13:59.545Z,.22
2023-01-30T04:14:31.558Z,.22
2023-01-30T04:15:04.080Z,.22
2023-01-30T04:15:35.548Z,.22
2023-01-30T04:16:08.546Z,.22
2023-01-30T04:16:34.986Z,.22
2023-01-30T04:16:55.581Z,.22
2023-01-30T04:17:27.584Z,.22
2023-01-30T04:17:59.806Z,.22
2023-01-30T04:18:31.550Z,.22
2023-01-30T04:19:03.543Z,.22
2023-01-30T04:19:35.693Z,.22
2023-01-30T04:20:07.932Z,.22
2023-01-30T04:20:34.727Z,.22
2023-01-30T04:20:55.793Z,.22
2023-01-30T04:21:27.612Z,.22
2023-01-30T04:21:59.588Z,.22
2023-01-30T04:22:36.687Z,.22
2023-01-30T04:23:03.519Z,.22
2023-01-30T04:23:35.509Z,.22
2023-01-30T04:24:07.539Z,.22
2023-01-30T04:24:35.054Z,.22
2023-01-30T04:24:55.552Z,.22
2023-01-30T04:25:27.884Z,.22
2023-01-30T04:25:59.596Z,.22
2023-01-30T04:26:31.631Z,.22
2023-01-30T04:27:03.560Z,.22
2023-01-30T04:27:35.520Z,.22
2023-01-30T04:28:07.560Z,.22
2023-01-30T04:28:34.673Z,.22
2023-01-30T04:28:56.228Z,.22
2023-01-30T04:29:27.548Z,.22
2023-01-30T04:29:59.593Z,.22
2023-01-30T04:30:32.121Z,.22
2023-01-30T04:31:03.592Z,.22
2023-01-30T04:31:35.638Z,.22
2023-01-30T04:32:09.355Z,.22
2023-01-30T04:32:34.680Z,.22
2023-01-30T04:32:55.593Z,.22
2023-01-30T04:33:27.594Z,.22
2023-01-30T04:33:59.577Z,.22
2023-01-30T04:34:31.564Z,.22
2023-01-30T04:35:03.919Z,.27
2023-01-30T04:35:35.579Z,.27
2023-01-30T04:36:07.528Z,.27
2023-01-30T04:36:34.684Z,.27
2023-01-30T04:36:55.571Z,.27
2023-01-30T04:37:27.723Z,.27
2023-01-30T04:37:59.652Z,.27
2023-01-30T04:38:38.042Z,.38
2023-01-30T04:39:03.599Z,.38
2023-01-30T04:39:35.539Z,.38
2023-01-30T04:40:07.926Z,.38
2023-01-30T04:40:34.660Z,.38
2023-01-30T04:40:55.839Z,.50
2023-01-30T04:41:27.607Z,.50
2023-01-30T04:42:16.055Z,.50
2023-01-30T04:42:37.161Z,.50
2023-01-30T04:43:03.567Z,.50
2023-01-30T04:43:35.557Z,.50
2023-01-30T04:44:07.549Z,.50
2023-01-30T04:44:34.735Z,.50
2023-01-30T04:44:55.566Z,.50
2023-01-30T04:45:29.320Z,.50
2023-01-30T04:45:59.613Z,.50
2023-01-30T04:46:31.562Z,.50
2023-01-30T04:47:03.704Z,.50
2023-01-30T04:47:35.576Z,.50
2023-01-30T04:48:07.547Z,.61
2023-01-30T04:48:34.661Z,.61
2023-01-30T04:48:56.265Z,.61
2023-01-30T04:49:27.629Z,.61
2023-01-30T04:49:59.636Z,.61
2023-01-30T04:50:31.878Z,.61
2023-01-30T04:51:03.585Z,.61
2023-01-30T04:51:36.527Z,.61
2023-01-30T04:52:08.401Z,.61
2023-01-30T04:52:34.682Z,.61
2023-01-30T04:52:55.562Z,.61
2023-01-30T04:53:27.553Z,.61
2023-01-30T04:53:59.627Z,.61
2023-01-30T04:54:31.592Z,.61
2023-01-30T04:55:04.030Z,.61
2023-01-30T04:55:35.538Z,.61
2023-01-30T04:56:07.530Z,.61
2023-01-30T04:56:34.683Z,.61
2023-01-30T04:56:55.612Z,.61
2023-01-30T04:57:27.572Z,.72
2023-01-30T04:57:59.727Z,.72
2023-01-30T04:58:32.256Z,.72
2023-01-30T04:59:03.569Z,.72
2023-01-30T04:59:35.541Z,.72
2023-01-30T05:00:08.409Z,.72
2023-01-30T05:00:34.685Z,.72
2023-01-30T05:00:55.918Z,.72
2023-01-30T05:01:27.600Z,.72
2023-01-30T05:01:59.967Z,.72
2023-01-30T05:02:31.920Z,.72
2023-01-30T05:03:03.126Z,.72
2023-01-30T05:03:35.150Z,.72
2023-01-30T05:04:07.164Z,.72
2023-01-30T05:04:34.182Z,.72
2023-01-30T05:04:55.121Z,.72
2023-01-30T05:05:27.459Z,.77
2023-01-30T05:06:00.933Z,.77
2023-01-30T05:06:32.987Z,.77
2023-01-30T05:07:03.788Z,.77
2023-01-30T05:07:35.636Z,.77
2023-01-30T05:08:07.554Z,.77
2023-01-30T05:08:34.629Z,.77
2023-01-30T05:08:56.402Z,.77
2023-01-30T05:09:27.766Z,.77
2023-01-30T05:09:59.679Z,.77
2023-01-30T05:10:31.938Z,.77
2023-01-30T05:11:03.703Z,.77
2023-01-30T05:11:35.905Z,.77
2023-01-30T05:12:24.485Z,.77
2023-01-30T05:12:42.713Z,.77
2023-01-30T05:13:11.608Z,.77
2023-01-30T05:13:34.646Z,.77
2023-01-30T05:13:59.604Z,.88
2023-01-30T05:14:31.583Z,.88
2023-01-30T05:15:04.483Z,.88
2023-01-30T05:15:35.658Z,.88
2023-01-30T05:16:07.800Z,.88
2023-01-30T05:16:34.677Z,.88
2023-01-30T05:16:55.618Z,.88
2023-01-30T05:17:27.676Z,.88
2023-01-30T05:17:59.682Z,.88
2023-01-30T05:18:31.567Z,.88
2023-01-30T05:19:05.095Z,.88
2023-01-30T05:19:35.633Z,.88
2023-01-30T05:20:07.890Z,.88
2023-01-30T05:20:34.661Z,.88
2023-01-30T05:20:55.848Z,.88
2023-01-30T05:21:27.610Z,.88
2023-01-30T05:21:59.739Z,.88
2023-01-30T05:22:31.615Z,.88
2023-01-30T05:23:03.819Z,.88
2023-01-30T05:23:35.646Z,.88
2023-01-30T05:24:07.714Z,.88
2023-01-30T05:24:35.252Z,.88
2023-01-30T05:24:55.647Z,.88
2023-01-30T05:25:28.991Z,.88
2023-01-30T05:25:59.774Z,.88
2023-01-30T05:26:31.611Z,.88
2023-01-30T05:27:03.595Z,.88
2023-01-30T05:27:35.718Z,.88
2023-01-30T05:28:07.607Z,.88
2023-01-30T05:28:36.381Z,.88
2023-01-30T05:28:55.640Z,1.00
2023-01-30T05:29:27.586Z,1.00
2023-01-30T05:29:59.605Z,1.00
2023-01-30T05:30:32.674Z,1.00
2023-01-30T05:31:03.730Z,1.00
2023-01-30T05:31:35.808Z,1.00
2023-01-30T05:32:07.624Z,1.00
2023-01-30T05:32:35.361Z,1.00
2023-01-30T05:32:55.643Z,1.00
2023-01-30T05:33:27.615Z,1.00
2023-01-30T05:33:59.576Z,1.00
2023-01-30T05:34:31.614Z,1.00
2023-01-30T05:35:05.010Z,1.00
2023-01-30T05:35:35.820Z,1.00
2023-01-30T05:36:07.599Z,1.00
2023-01-30T05:36:34.633Z,1.00
2023-01-30T05:36:55.633Z,1.00
2023-01-30T05:37:27.648Z,1.00
2023-01-30T05:37:59.628Z,.88
2023-01-30T05:38:31.638Z,.88
2023-01-30T05:39:03.608Z,.88
2023-01-30T05:39:35.666Z,.88
2023-01-30T05:40:08.055Z,.88
2023-01-30T05:40:34.652Z,.88
2023-01-30T05:40:55.870Z,.88
2023-01-30T05:41:31.499Z,.88
2023-01-30T05:41:59.595Z,1.00
2023-01-30T05:42:31.575Z,1.00
2023-01-30T05:43:03.581Z,1.00
2023-01-30T05:43:35.951Z,1.00
2023-01-30T05:44:07.585Z,1.00
2023-01-30T05:44:40.473Z,1.00
2023-01-30T05:45:12.190Z,1.00
2023-01-30T05:45:35.050Z,1.00
2023-01-30T05:45:59.919Z,1.00
2023-01-30T05:46:31.664Z,1.00
2023-01-30T05:47:03.705Z,1.00
2023-01-30T05:47:35.643Z,1.00
2023-01-30T05:48:07.621Z,1.00
2023-01-30T05:48:34.636Z,1.00
2023-01-30T05:48:55.665Z,1.00
2023-01-30T05:49:27.591Z,1.00
2023-01-30T05:49:59.583Z,1.00
2023-01-30T05:50:31.913Z,1.00
2023-01-30T05:51:04.585Z,.88
2023-01-30T05:51:35.595Z,.88
2023-01-30T05:52:07.581Z,.88
2023-01-30T05:52:34.644Z,.88
2023-01-30T05:52:55.630Z,.88
2023-01-30T05:53:27.699Z,.88
2023-01-30T05:53:59.941Z,.88
2023-01-30T05:54:31.651Z,.88
2023-01-30T05:55:04.031Z,.88
2023-01-30T05:55:36.144Z,.88
2023-01-30T05:56:07.619Z,.88
2023-01-30T05:56:34.648Z,.88
2023-01-30T05:56:55.638Z,.88
2023-01-30T05:57:28.427Z,.88
2023-01-30T05:57:59.587Z,.88
2023-01-30T05:58:31.600Z,.77
2023-01-30T05:59:03.626Z,.77
2023-01-30T05:59:43.038Z,.77
2023-01-30T06:00:08.230Z,.77
2023-01-30T06:00:35.574Z,.77
2023-01-30T06:00:55.904Z,.77
2023-01-30T06:01:27.604Z,.77
2023-01-30T06:01:59.669Z,.77
2023-01-30T06:02:31.655Z,.77
2023-01-30T06:03:03.670Z,.77
2023-01-30T06:03:36.444Z,.77
2023-01-30T06:04:07.698Z,.77
2023-01-30T06:04:34.738Z,.77
2023-01-30T06:04:55.623Z,.77
2023-01-30T06:05:27.957Z,.77
2023-01-30T06:05:59.601Z,.77
2023-01-30T06:06:31.600Z,.77
2023-01-30T06:07:03.586Z,.77
2023-01-30T06:07:35.641Z,.77
2023-01-30T06:08:07.593Z,.77
2023-01-30T06:08:34.651Z,.77
2023-01-30T06:08:55.672Z,.77
2023-01-30T06:09:27.654Z,.77
2023-01-30T06:10:00.764Z,.77
2023-01-30T06:10:31.696Z,.77
2023-01-30T06:11:03.791Z,.77
2023-01-30T06:11:35.690Z,.77
2023-01-30T06:12:07.606Z,.77
2023-01-30T06:12:34.652Z,.77
2023-01-30T06:12:55.617Z,.88
2023-01-30T06:13:27.618Z,.88
2023-01-30T06:13:59.642Z,.88
2023-01-30T06:14:31.654Z,.88
2023-01-30T06:15:04.249Z,.88
2023-01-30T06:15:35.619Z,.88
2023-01-30T06:16:07.844Z,.88
2023-01-30T06:16:35.099Z,.88
2023-01-30T06:16:55.736Z,1.00
2023-01-30T06:17:29.765Z,1.00
2023-01-30T06:17:59.653Z,1.00
2023-01-30T06:18:31.616Z,1.00
2023-01-30T06:19:03.636Z,1.00
2023-01-30T06:19:36.455Z,1.00
2023-01-30T06:20:07.944Z,1.00
2023-01-30T06:20:34.645Z,1.00
2023-01-30T06:20:55.890Z,1.00
2023-01-30T06:21:27.621Z,1.00
2023-01-30T06:21:59.632Z,1.00
2023-01-30T06:22:32.015Z,1.00
2023-01-30T06:23:03.817Z,1.00
2023-01-30T06:23:35.625Z,1.00
2023-01-30T06:24:07.627Z,1.00
2023-01-30T06:24:35.361Z,1.00
2023-01-30T06:24:55.647Z,1.00
2023-01-30T06:25:27.927Z,1.00
2023-01-30T06:26:16.253Z,1.00
2023-01-30T06:26:37.197Z,1.00
2023-01-30T06:27:03.592Z,1.11
2023-01-30T06:27:35.638Z,1.11
2023-01-30T06:28:07.663Z,1.11
2023-01-30T06:28:34.651Z,1.11
2023-01-30T06:28:55.646Z,1.11
2023-01-30T06:29:27.609Z,1.11
2023-01-30T06:29:59.625Z,1.11
2023-01-30T06:30:32.312Z,1.11
2023-01-30T06:31:03.871Z,1.11
2023-01-30T06:31:35.656Z,1.11
2023-01-30T06:32:07.613Z,1.11
2023-01-30T06:32:34.633Z,1.11
2023-01-30T06:32:56.681Z,1.11
2023-01-30T06:33:27.626Z,1.11
2023-01-30T06:33:59.660Z,1.11
2023-01-30T06:34:31.656Z,1.11
2023-01-30T06:35:04.128Z,1.11
2023-01-30T06:35:35.934Z,1.11
2023-01-30T06:36:08.548Z,1.11
2023-01-30T06:36:34.737Z,1.11
2023-01-30T06:36:55.655Z,1.11
2023-01-30T06:37:27.648Z,1.00
2023-01-30T06:37:59.630Z,1.00
2023-01-30T06:38:31.628Z,1.00
2023-01-30T06:39:03.617Z,1.00
2023-01-30T06:39:35.660Z,.88
2023-01-30T06:40:08.011Z,.88
2023-01-30T06:40:34.696Z,.88
2023-01-30T06:40:55.883Z,.88
2023-01-30T06:41:27.672Z,.88
2023-01-30T06:41:59.604Z,.88
2023-01-30T06:42:33.364Z,.88
2023-01-30T06:43:03.635Z,1.00
2023-01-30T06:43:35.778Z,1.00
2023-01-30T06:44:07.636Z,1.00
2023-01-30T06:44:34.654Z,1.00
2023-01-30T06:44:55.689Z,1.00
2023-01-30T06:45:28.259Z,1.00
2023-01-30T06:46:00.034Z,1.00
2023-01-30T06:46:31.682Z,1.11
2023-01-30T06:47:03.613Z,1.11
2023-01-30T06:47:35.612Z,1.11
2023-01-30T06:48:07.646Z,1.11
2023-01-30T06:48:34.639Z,1.11
2023-01-30T06:48:56.616Z,1.11
2023-01-30T06:49:27.687Z,1.11
2023-01-30T06:49:59.647Z,1.11
2023-01-30T06:50:31.944Z,1.11
2023-01-30T06:51:03.705Z,1.22
2023-01-30T06:51:35.764Z,1.22
2023-01-30T06:52:09.360Z,1.22
2023-01-30T06:52:34.639Z,1.22
2023-01-30T06:52:55.707Z,1.22